Time;durP1;ratioP1;P1;durP2;ratioP2;P2;SDS_P1;SDS_P2;PMS_P1;PMS_P2;Temp;Humidity;BMP_temperature;BMP_pressure;BME280_temperature;BME280_humidity;BME280_pressure;Samples;Min_cycle;Max_cycle;Signal;HPM_P1;HPM_P2
2022/01/08 00:00:30;;;;;;;9.30;5.22;;;-0.50;99.90;;;;;;5044190;28;20043;-49
2022/01/08 00:02:57;;;;;;;9.38;5.45;;;-0.60;99.90;;;;;;5035557;28;20033;-49
2022/01/08 00:05:24;;;;;;;19.30;6.57;;;-0.60;99.90;;;;;;5031542;28;20522;-50
2022/01/08 00:07:51;;;;;;;11.90;5.80;;;-0.60;99.90;;;;;;5030542;28;20049;-50
2022/01/08 00:10:18;;;;;;;;;;;-0.50;99.90;;;;;;5032067;28;20108;-52
2022/01/08 00:12:45;;;;;;;9.57;5.68;;;-0.50;99.90;;;;;;5031597;28;19921;-49
2022/01/08 00:15:12;;;;;;;18.10;5.00;;;-0.50;99.90;;;;;;5031285;28;20171;-49
2022/01/08 00:17:38;;;;;;;10.18;5.35;;;-0.50;99.90;;;;;;5031810;28;20053;-49
2022/01/08 00:20:06;;;;;;;8.48;5.38;;;-0.50;99.90;;;;;;5031502;28;20120;-50
2022/01/08 00:22:33;;;;;;;10.23;5.20;;;-0.60;99.90;;;;;;5031613;28;20095;-50
2022/01/08 00:25:00;;;;;;;11.02;5.75;;;-0.60;99.90;;;;;;5031484;28;20103;-49
2022/01/08 00:27:27;;;;;;;8.48;4.13;;;-0.50;99.90;;;;;;5031091;28;20045;-50
2022/01/08 00:29:54;;;;;;;12.43;5.70;;;-0.50;99.90;;;;;;5046722;28;20399;-49
2022/01/08 00:32:21;;;;;;;8.95;5.50;;;-0.40;99.90;;;;;;5031527;28;20076;-50
2022/01/08 00:34:48;;;;;;;11.93;6.30;;;-0.40;99.90;;;;;;5031582;28;20454;-49
2022/01/08 00:37:15;;;;;;;12.30;6.28;;;-0.50;99.90;;;;;;5030675;28;20065;-52
2022/01/08 00:39:42;;;;;;;13.02;5.82;;;-0.50;99.90;;;;;;5031353;28;20103;-49
2022/01/08 00:42:08;;;;;;;9.18;5.45;;;-0.50;99.90;;;;;;5031395;28;20052;-48
2022/01/08 00:44:35;;;;;;;9.07;5.50;;;-0.40;99.90;;;;;;5031335;28;20406;-49
2022/01/08 00:47:03;;;;;;;9.57;5.78;;;-0.50;99.90;;;;;;5030988;28;20045;-50
2022/01/08 00:49:30;;;;;;;11.93;5.30;;;-0.50;99.90;;;;;;5031261;28;20060;-50
2022/01/08 00:51:57;;;;;;;8.95;4.88;;;-0.50;99.90;;;;;;5031667;28;20485;-50
2022/01/08 00:54:24;;;;;;;8.60;4.90;;;-0.50;99.90;;;;;;5031085;28;20080;-50
2022/01/08 00:56:50;;;;;;;9.95;5.75;;;-0.60;99.90;;;;;;5030913;28;20045;-50
2022/01/08 00:59:18;;;;;;;12.93;5.47;;;-0.60;99.90;;;;;;5031114;28;20096;-50
2022/01/08 01:01:44;;;;;;;14.10;5.72;;;-0.50;99.90;;;;;;5030942;28;20041;-49
2022/01/08 01:04:11;;;;;;;15.38;6.30;;;-0.50;99.90;;;;;;5030249;28;20100;-48
2022/01/08 01:06:38;;;;;;;10.07;5.75;;;-0.50;99.90;;;;;;5030050;28;20098;-49
2022/01/08 01:09:05;;;;;;;11.77;5.75;;;-0.50;99.90;;;;;;5029308;28;20037;-50
2022/01/08 01:11:32;;;;;;;9.50;5.88;;;-0.50;99.90;;;;;;5030875;28;20111;-50
2022/01/08 01:13:58;;;;;;;10.70;5.72;;;-0.50;99.90;;;;;;5030411;28;20405;-48
2022/01/08 01:16:25;;;;;;;11.90;5.10;;;-0.50;99.90;;;;;;5030256;28;20042;-50
2022/01/08 01:18:53;;;;;;;13.13;6.22;;;-0.50;99.90;;;;;;5031085;28;20057;-50
2022/01/08 01:21:20;;;;;;;12.90;6.82;;;-0.50;99.90;;;;;;5031155;28;20053;-48
2022/01/08 01:23:48;;;;;;;13.00;6.50;;;-0.60;99.90;;;;;;5031155;28;20092;-49
2022/01/08 01:26:19;;;;;;;13.25;6.63;;;-0.60;99.90;;;;;;5030488;28;20049;-50
2022/01/08 01:28:57;;;;;;;12.90;6.82;;;-0.60;99.90;;;;;;5034675;28;20560;-51
2022/01/08 01:42:35;;;;;;;11.98;6.55;;;-0.80;99.90;;;;;;5034672;28;20522;-51
2022/01/08 01:47:48;;;;;;;11.40;6.85;;;-0.90;99.90;;;;;;5034479;28;20045;-49
2022/01/08 01:50:15;;;;;;;12.23;7.28;;;-1.00;99.90;;;;;;5034249;28;20033;-49
2022/01/08 01:52:42;;;;;;;12.23;6.22;;;-1.00;99.90;;;;;;5034440;28;20038;-49
2022/01/08 01:55:09;;;;;;;13.35;6.35;;;-1.10;99.90;;;;;;5034052;28;20128;-49
2022/01/08 01:57:36;;;;;;;16.23;7.38;;;-1.00;99.90;;;;;;5038704;28;20091;-50
2022/01/08 02:00:05;;;;;;;15.98;7.57;;;-1.10;99.90;;;;;;5052395;28;20045;-49
2022/01/08 02:02:39;;;;;;;13.63;6.88;;;-1.10;99.90;;;;;;5050654;28;20057;-48
2022/01/08 02:05:07;;;;;;;12.77;7.55;;;-1.30;99.90;;;;;;5033888;28;20048;-53
2022/01/08 02:07:34;;;;;;;11.85;6.45;;;-1.30;99.90;;;;;;5033826;28;20542;-50
2022/01/08 02:10:01;;;;;;;15.15;7.78;;;-1.30;99.90;;;;;;5034061;28;20490;-49
2022/01/08 02:12:32;;;;;;;13.30;7.03;;;-1.40;99.90;;;;;;5034036;28;20053;-53
2022/01/08 02:14:58;;;;;;;14.35;7.20;;;-1.40;99.90;;;;;;5041022;28;20091;-49
2022/01/08 02:17:26;;;;;;;14.45;6.28;;;-1.40;99.90;;;;;;5046112;28;20049;-48
2022/01/08 02:19:54;;;;;;;13.50;7.32;;;-1.40;99.90;;;;;;5033714;28;20053;-49
2022/01/08 02:22:21;;;;;;;13.95;7.10;;;-1.40;99.90;;;;;;5033182;28;20040;-49
2022/01/08 02:24:48;;;;;;;16.55;6.82;;;-1.40;99.90;;;;;;5033540;28;20042;-48
2022/01/08 02:27:16;;;;;;;14.43;6.85;;;-1.50;99.90;;;;;;5033110;28;20038;-51
2022/01/08 02:29:44;;;;;;;14.13;6.88;;;-1.40;99.90;;;;;;5033807;28;20562;-48
2022/01/08 02:32:15;;;;;;;15.55;6.57;;;-1.50;99.90;;;;;;5033646;28;20049;-51
2022/01/08 02:34:45;;;;;;;14.82;7.30;;;-1.50;99.90;;;;;;5033677;28;20410;-51
2022/01/08 02:37:17;;;;;;;20.80;7.65;;;-1.50;99.90;;;;;;5033176;28;20525;-49
2022/01/08 02:39:48;;;;;;;12.50;7.05;;;-1.60;99.90;;;;;;5033488;28;20041;-48
2022/01/08 02:42:19;;;;;;;13.60;6.78;;;-1.60;99.90;;;;;;5033531;28;20042;-52
2022/01/08 02:44:48;;;;;;;14.43;7.65;;;-1.70;99.90;;;;;;5033322;28;20069;-48
2022/01/08 02:47:20;;;;;;;19.65;7.07;;;-1.70;99.90;;;;;;5032884;28;20069;-49
2022/01/08 02:49:52;;;;;;;15.35;6.95;;;-1.70;99.90;;;;;;5033732;28;20041;-48
2022/01/08 02:52:21;;;;;;;15.43;6.35;;;-1.70;99.90;;;;;;5033356;28;20052;-49
2022/01/08 02:54:48;;;;;;;12.73;6.22;;;-1.70;99.90;;;;;;5032934;28;20060;-50
2022/01/08 02:57:15;;;;;;;16.48;6.68;;;-1.70;99.90;;;;;;5032804;28;20103;-50
2022/01/08 02:59:42;;;;;;;16.48;6.53;;;-1.60;99.90;;;;;;5033432;28;20445;-50
2022/01/08 03:02:09;;;;;;;12.40;6.38;;;-1.60;99.90;;;;;;5033180;28;20486;-48
2022/01/08 03:04:36;;;;;;;11.95;6.03;;;-1.60;99.90;;;;;;5033051;28;20069;-49
2022/01/08 03:07:03;;;;;;;14.65;6.53;;;-1.70;99.90;;;;;;5032699;28;20037;-49
2022/01/08 03:09:32;;;;;;;16.98;6.13;;;-1.60;99.90;;;;;;5032763;28;20050;-49
2022/01/08 03:11:59;;;;;;;12.60;6.40;;;-1.70;99.90;;;;;;5032846;28;20041;-48
2022/01/08 03:14:25;;;;;;;14.07;6.00;;;-1.70;99.90;;;;;;5032822;28;20099;-48
2022/01/08 03:16:52;;;;;;;17.33;6.13;;;-1.70;99.90;;;;;;5032557;28;20065;-51
2022/01/08 03:19:20;;;;;;;13.25;5.88;;;-1.80;99.90;;;;;;5032765;28;20085;-48
2022/01/08 03:21:52;;;;;;;12.40;6.13;;;-1.80;99.90;;;;;;5032515;28;20486;-49
2022/01/08 03:24:27;;;;;;;10.38;5.25;;;-1.80;99.90;;;;;;5032559;28;20099;-49
2022/01/08 03:26:54;;;;;;;14.13;5.57;;;-1.80;99.90;;;;;;5032288;28;20064;-48
2022/01/08 03:29:21;;;;;;;;;;;-1.80;99.90;;;;;;5032972;28;20042;-52
2022/01/08 03:31:48;;;;;;;11.32;5.47;;;-1.80;99.90;;;;;;5032482;28;19924;-48
2022/01/08 03:34:15;;;;;;;12.63;5.30;;;-1.80;99.90;;;;;;5032407;28;20049;-49
2022/01/08 03:36:42;;;;;;;12.55;5.47;;;-1.90;99.90;;;;;;5032143;28;20128;-49
2022/01/08 03:39:09;;;;;;;12.23;5.43;;;-1.90;99.90;;;;;;5031105;28;20315;-48
2022/01/08 03:41:36;;;;;;;11.15;5.45;;;-1.90;99.90;;;;;;5032245;28;20049;-48
2022/01/08 03:44:03;;;;;;;10.52;5.30;;;-2.00;99.90;;;;;;5032286;28;20085;-47
2022/01/08 03:46:34;;;;;;;10.75;4.50;;;-2.00;99.90;;;;;;5031786;28;20047;-48
2022/01/08 03:51:31;;;;;;;12.02;5.65;;;-2.10;99.90;;;;;;5032011;28;20095;-48
2022/01/08 03:53:58;;;;;;;12.20;5.30;;;-2.10;99.90;;;;;;5031911;28;20056;-48
2022/01/08 03:56:26;;;;;;;9.48;4.80;;;-2.10;99.90;;;;;;5031606;28;20045;-48
2022/01/08 03:58:53;;;;;;;13.23;6.38;;;-2.10;99.90;;;;;;5032058;28;20041;-48
2022/01/08 04:01:20;;;;;;;12.25;5.82;;;-2.10;99.90;;;;;;5031988;28;20175;-48
2022/01/08 04:03:47;;;;;;;10.98;5.82;;;-2.10;99.90;;;;;;5032128;28;20449;-48
2022/01/08 04:06:14;;;;;;;15.40;5.90;;;-2.20;99.90;;;;;;5031239;28;20696;-48
2022/01/08 04:08:40;;;;;;;9.70;6.20;;;-2.20;99.90;;;;;;5031923;28;20045;-49
2022/01/08 04:11:07;;;;;;;12.55;5.82;;;-2.10;99.90;;;;;;5031839;28;20636;-48
2022/01/08 04:13:37;;;;;;;13.82;5.93;;;-2.10;99.90;;;;;;5031948;28;20107;-47
2022/01/08 04:16:14;;;;;;;11.93;5.32;;;-2.10;99.90;;;;;;5031424;28;20046;-48
2022/01/08 04:18:41;;;;;;;7.07;4.07;;;-2.10;99.90;;;;;;5031475;28;20045;-48
2022/01/08 04:23:36;;;;;;;13.77;6.25;;;-2.30;99.90;;;;;;5031743;28;20402;-48
2022/01/08 04:26:03;;;;;;;15.98;6.22;;;-2.30;99.90;;;;;;5069316;22;20106;-53
2022/01/08 04:28:30;;;;;;;;;;;-2.30;99.90;;;;;;5074387;28;20044;-54
2022/01/08 04:30:57;;;;;;;10.13;5.35;;;-2.20;99.90;;;;;;5091595;28;19920;-52
2022/01/08 04:33:24;;;;;;;12.45;5.80;;;-2.30;99.90;;;;;;5090977;28;20067;-53
2022/01/08 04:35:51;;;;;;;14.07;6.43;;;-2.30;99.90;;;;;;5090920;28;20040;-54
2022/01/08 04:38:18;;;;;;;13.00;6.13;;;-2.30;99.90;;;;;;5091448;28;20169;-53
2022/01/08 04:40:45;;;;;;;9.32;5.10;;;-2.30;99.90;;;;;;5091642;28;20593;-54
2022/01/08 04:43:11;;;;;;;13.80;6.32;;;-2.30;99.90;;;;;;5091643;28;20454;-54
2022/01/08 04:45:38;;;;;;;11.10;6.25;;;-2.30;99.90;;;;;;5091007;28;20447;-51
2022/01/08 04:48:06;;;;;;;8.95;4.35;;;-2.30;99.90;;;;;;5091573;28;20108;-55
2022/01/08 04:50:34;;;;;;;10.52;6.07;;;-2.40;99.90;;;;;;5091773;28;20458;-55
2022/01/08 04:53:01;;;;;;;12.40;6.45;;;-2.40;99.90;;;;;;5091346;28;20047;-54
2022/01/08 04:55:27;;;;;;;11.80;5.50;;;-2.50;99.90;;;;;;5091004;28;20048;-53
2022/01/08 04:57:54;;;;;;;11.48;5.45;;;-2.50;99.90;;;;;;5091305;28;20054;-54
2022/01/08 05:00:22;;;;;;;13.43;6.63;;;-2.50;99.90;;;;;;5091335;28;20446;-51
2022/01/08 05:02:48;;;;;;;;;;;-2.60;99.90;;;;;;5094473;28;20048;-51
2022/01/08 05:05:16;;;;;;;13.30;5.88;;;-2.60;99.90;;;;;;5095114;28;20042;-54
2022/01/08 05:07:43;;;;;;;;;;;-2.60;99.90;;;;;;5095670;28;20399;-53
2022/01/08 05:10:10;;;;;;;12.38;6.50;;;-2.50;99.90;;;;;;5095443;28;19946;-53
2022/01/08 05:12:37;;;;;;;12.68;6.00;;;-2.50;99.90;;;;;;5095327;28;20530;-54
2022/01/08 05:15:05;;;;;;;13.02;5.57;;;-2.50;99.90;;;;;;5095270;28;20490;-56
2022/01/08 05:17:35;;;;;;;12.77;5.50;;;-2.60;99.90;;;;;;5094941;28;20408;-54
2022/01/08 05:20:11;;;;;;;12.35;5.88;;;-2.50;99.90;;;;;;5095207;28;20481;-54
2022/01/08 05:22:50;;;;;;;12.60;5.97;;;-2.50;99.90;;;;;;5095212;28;20043;-51
2022/01/08 05:25:19;;;;;;;12.82;5.78;;;-2.60;99.90;;;;;;5094431;28;20044;-52
2022/01/08 05:27:46;;;;;;;12.65;6.82;;;-2.60;99.90;;;;;;5095056;28;20507;-54
2022/01/08 05:30:15;;;;;;;9.18;5.55;;;-2.70;99.90;;;;;;5094801;28;20553;-54
2022/01/08 05:32:43;;;;;;;11.93;5.57;;;-2.70;99.90;;;;;;5094985;28;20044;-53
2022/01/08 05:35:10;;;;;;;15.35;5.88;;;-2.70;99.90;;;;;;5094812;28;20427;-54
2022/01/08 05:37:38;;;;;;;10.60;5.40;;;-2.60;99.90;;;;;;5094510;28;20044;-54
2022/01/08 05:40:05;;;;;;;11.52;5.38;;;-2.60;99.90;;;;;;5094762;28;20044;-52
2022/01/08 05:42:32;;;;;;;11.57;5.20;;;-2.60;99.90;;;;;;5095072;28;20044;-53
2022/01/08 05:44:59;;;;;;;14.57;6.13;;;-2.50;99.90;;;;;;5094569;28;20505;-54
2022/01/08 05:47:33;;;;;;;12.02;5.72;;;-2.60;99.90;;;;;;5094525;28;20051;-53
2022/01/08 05:50:01;;;;;;;10.30;5.28;;;-2.60;99.90;;;;;;5094660;28;20052;-52
2022/01/08 05:52:28;;;;;;;14.10;5.90;;;-2.60;99.90;;;;;;5094451;28;20040;-52
2022/01/08 05:54:55;;;;;;;10.02;5.40;;;-2.60;99.90;;;;;;5094420;28;20044;-54
2022/01/08 05:57:21;;;;;;;10.90;5.38;;;-2.60;99.90;;;;;;5094152;28;20428;-56
2022/01/08 05:59:48;;;;;;;9.55;5.43;;;-2.60;99.90;;;;;;5094351;28;20065;-53
2022/01/08 06:02:15;;;;;;;11.35;5.97;;;-2.60;99.90;;;;;;5094479;28;20090;-54
2022/01/08 06:04:42;;;;;;;13.73;5.30;;;-2.60;99.90;;;;;;5094238;28;20047;-54
2022/01/08 06:07:10;;;;;;;10.45;5.10;;;-2.50;99.90;;;;;;5093653;28;20044;-55
2022/01/08 06:09:37;;;;;;;14.55;5.72;;;-2.50;99.90;;;;;;5094304;28;20127;-54
2022/01/08 06:12:04;;;;;;;7.20;4.35;;;-2.50;99.90;;;;;;5093988;28;20109;-54
2022/01/08 06:14:31;;;;;;;13.65;5.57;;;-2.50;99.90;;;;;;5094012;28;20135;-55
2022/01/08 06:16:58;;;;;;;8.90;4.20;;;-2.50;99.90;;;;;;5093738;28;20066;-53
2022/01/08 06:19:24;;;;;;;13.23;6.85;;;-2.40;99.90;;;;;;5093681;28;20048;-54
2022/01/08 06:21:51;;;;;;;15.55;6.75;;;-2.40;99.90;;;;;;5094129;28;20037;-54
2022/01/08 06:24:18;;;;;;;11.32;5.78;;;-2.50;99.90;;;;;;5094018;28;20535;-56
2022/01/08 06:26:45;;;;;;;13.52;6.15;;;-2.50;99.90;;;;;;5093258;28;20109;-52
2022/01/08 06:29:12;;;;;;;10.77;5.03;;;-2.60;99.90;;;;;;5094049;28;20076;-51
2022/01/08 06:31:39;;;;;;;12.30;6.00;;;-2.60;99.90;;;;;;5093805;28;20446;-53
2022/01/08 06:34:06;;;;;;;10.68;5.43;;;-2.60;99.90;;;;;;5093665;28;20043;-53
2022/01/08 06:36:33;;;;;;;8.68;4.70;;;-2.50;99.90;;;;;;5093288;28;20478;-54
2022/01/08 06:39:00;;;;;;;15.00;7.00;;;-2.50;99.90;;;;;;5093863;28;20036;-56
2022/01/08 06:41:29;;;;;;;15.88;7.35;;;-2.50;99.90;;;;;;5093855;28;20428;-53
2022/01/08 06:43:57;;;;;;;17.30;7.57;;;-2.50;99.90;;;;;;5093688;28;20032;-51
2022/01/08 06:46:24;;;;;;;14.63;7.75;;;-2.50;99.90;;;;;;5093003;28;20598;-54
2022/01/08 06:48:51;;;;;;;17.20;5.95;;;-2.50;99.90;;;;;;5093446;28;20506;-54
2022/01/08 06:51:18;;;;;;;10.80;5.75;;;-2.50;99.90;;;;;;5093373;28;20090;-56
2022/01/08 06:53:45;;;;;;;10.27;5.22;;;-2.40;99.90;;;;;;5093391;28;20054;-50
2022/01/08 06:56:12;;;;;;;;;;;-2.30;99.90;;;;;;5093302;28;20048;-53
2022/01/08 06:58:41;;;;;;;9.73;5.00;;;-2.30;99.90;;;;;;5093353;28;19920;-52
2022/01/08 07:01:08;;;;;;;11.18;5.28;;;-2.20;99.90;;;;;;5092979;28;20040;-54
2022/01/08 07:03:35;;;;;;;14.35;6.20;;;-2.10;99.90;;;;;;5093464;28;20040;-53
2022/01/08 07:06:02;;;;;;;;;;;-2.00;99.90;;;;;;5093027;28;20054;-50
2022/01/08 07:08:29;;;;;;;13.77;5.28;;;-2.00;99.90;;;;;;5093094;28;19926;-51
2022/01/08 07:10:57;;;;;;;15.27;6.40;;;-2.00;99.90;;;;;;5093073;28;20052;-52
2022/01/08 07:13:24;;;;;;;10.85;5.60;;;-1.90;99.90;;;;;;5092938;28;20120;-51
2022/01/08 07:15:51;;;;;;;12.40;5.70;;;-1.90;99.90;;;;;;5092334;28;20074;-53
2022/01/08 07:18:18;;;;;;;17.45;5.93;;;-1.90;99.90;;;;;;5093036;28;20432;-55
2022/01/08 07:20:45;;;;;;;11.77;5.80;;;-1.80;99.90;;;;;;5092878;28;20489;-55
2022/01/08 07:23:12;;;;;;;11.73;6.00;;;-1.80;99.90;;;;;;5092840;28;20043;-53
2022/01/08 07:25:38;;;;;;;10.30;5.30;;;-1.80;99.90;;;;;;5091170;28;20095;-52
2022/01/08 07:28:05;;;;;;;12.55;5.35;;;-1.80;99.90;;;;;;5074416;28;20458;-53
2022/01/08 07:30:32;;;;;;;13.45;6.82;;;-1.80;99.90;;;;;;5088085;28;20150;-54
2022/01/08 07:32:59;;;;;;;18.33;7.15;;;-1.90;99.90;;;;;;5064413;28;20052;-53
2022/01/08 07:35:26;;;;;;;18.25;6.80;;;-1.90;99.90;;;;;;5070826;28;20079;-52
2022/01/08 07:37:53;;;;;;;14.00;7.05;;;-1.80;99.90;;;;;;5052370;28;20110;-53
2022/01/08 07:40:20;;;;;;;11.43;6.15;;;-1.80;99.90;;;;;;5054630;28;20041;-52
2022/01/08 07:42:47;;;;;;;;;;;-1.90;99.90;;;;;;5052583;28;20052;-54
2022/01/08 07:45:16;;;;;;;10.52;5.63;;;-1.90;99.90;;;;;;5051759;28;19921;-55
2022/01/08 07:47:44;;;;;;;12.85;6.32;;;-1.90;99.90;;;;;;5051859;28;20041;-55
2022/01/08 07:50:11;;;;;;;16.63;7.75;;;-1.90;99.90;;;;;;5052103;28;20041;-52
2022/01/08 07:52:39;;;;;;;15.63;7.05;;;-1.80;99.90;;;;;;5068960;28;20505;-55
2022/01/08 07:55:06;;;;;;;12.65;6.72;;;-1.80;99.90;;;;;;5071331;28;20439;-56
2022/01/08 07:57:33;;;;;;;15.65;7.93;;;-1.80;99.90;;;;;;5054228;28;20094;-53
2022/01/08 07:59:59;;;;;;;18.17;8.40;;;-1.70;99.90;;;;;;5051840;28;20037;-55
2022/01/08 08:02:26;;;;;;;22.00;9.32;;;-1.60;99.90;;;;;;5051926;28;20379;-52
2022/01/08 08:04:53;;;;;;;18.98;8.00;;;-1.50;99.90;;;;;;5051764;28;20128;-55
2022/01/08 08:07:28;;;;;;;25.02;8.30;;;-1.50;99.90;;;;;;5051246;28;20053;-55
2022/01/08 08:09:55;;;;;;;18.42;7.45;;;-1.50;99.90;;;;;;5051400;28;20102;-55
2022/01/08 08:12:23;;;;;;;;;;;-1.40;99.90;;;;;;5052109;28;20086;-56
2022/01/08 08:14:50;;;;;;;17.83;7.75;;;-1.40;99.90;;;;;;5051598;28;19991;-52
2022/01/08 08:17:17;;;;;;;19.25;7.55;;;-1.40;99.90;;;;;;5051092;28;20052;-53
2022/01/08 08:19:44;;;;;;;12.45;6.13;;;-1.40;99.90;;;;;;5051520;28;20033;-52
2022/01/08 08:22:11;;;;;;;12.68;5.97;;;-1.40;99.90;;;;;;5051439;28;20045;-54
2022/01/08 08:24:38;;;;;;;;;;;-1.30;99.90;;;;;;5051893;28;20124;-52
2022/01/08 08:27:06;;;;;;;11.05;5.68;;;-1.10;99.90;;;;;;5064126;28;20355;-52
2022/01/08 08:29:33;;;;;;;10.38;5.95;;;-1.10;99.90;;;;;;5071599;28;20106;-52
2022/01/08 08:32:00;;;;;;;14.10;6.43;;;-0.90;99.90;;;;;;5071358;28;20045;-57
2022/01/08 08:34:27;;;;;;;14.95;6.93;;;-0.80;99.90;;;;;;5071542;28;20044;-54
2022/01/08 08:36:54;;;;;;;18.02;9.05;;;-0.80;99.90;;;;;;5070626;28;20036;-56
2022/01/08 08:39:20;;;;;;;15.15;6.38;;;-0.80;99.90;;;;;;5053688;28;20471;-54
2022/01/08 08:41:47;;;;;;;13.07;6.15;;;-0.80;99.90;;;;;;5071240;28;20076;-53
2022/01/08 08:44:14;;;;;;;14.15;7.07;;;-0.70;99.90;;;;;;5071267;28;20044;-54
2022/01/08 08:46:41;;;;;;;13.25;6.82;;;-0.70;99.90;;;;;;5070794;28;20049;-55
2022/01/08 08:49:08;;;;;;;47.58;16.23;;;-0.70;99.90;;;;;;5065775;28;20045;-55
2022/01/08 08:51:36;;;;;;;26.08;11.25;;;-0.60;99.90;;;;;;5051154;28;20049;-54
2022/01/08 08:54:03;;;;;;;15.85;7.00;;;-0.50;99.90;;;;;;5051068;28;20056;-53
2022/01/08 08:56:30;;;;;;;14.18;6.93;;;-0.40;99.90;;;;;;5050712;28;20113;-54
2022/01/08 08:58:57;;;;;;;12.07;6.80;;;-0.30;99.90;;;;;;5051184;28;20049;-54
2022/01/08 09:01:26;;;;;;;15.90;7.50;;;-0.30;99.90;;;;;;5055215;28;20041;-54
2022/01/08 09:03:54;;;;;;;14.75;8.30;;;-0.30;99.90;;;;;;5059434;28;20090;-55
2022/01/08 09:06:21;;;;;;;;;;;-0.40;99.90;;;;;;5060502;28;20033;-55
2022/01/08 09:08:48;;;;;;;14.45;8.13;;;-0.30;99.90;;;;;;5061515;28;19920;-53
2022/01/08 09:11:15;;;;;;;;;;;-0.30;99.90;;;;;;5065831;28;20440;-52
2022/01/08 09:13:42;;;;;;;28.67;12.98;;;-0.40;99.90;;;;;;5071016;28;19932;-53
2022/01/08 09:16:09;;;;;;;20.27;9.10;;;-0.30;99.90;;;;;;5070544;28;20070;-54
2022/01/08 09:18:39;;;;;;;20.05;10.25;;;-0.40;99.90;;;;;;5070874;28;20048;-55
2022/01/08 09:21:06;;;;;;;14.80;8.10;;;-0.30;99.90;;;;;;5071078;28;20459;-53
2022/01/08 09:23:33;;;;;;;11.25;7.07;;;-0.20;99.90;;;;;;5070785;28;20045;-52
2022/01/08 09:26:01;;;;;;;13.88;6.68;;;-0.10;99.90;;;;;;5059722;28;20128;-52
2022/01/08 09:28:30;;;;;;;12.30;6.43;;;-0.10;99.90;;;;;;5061464;28;20098;-52
2022/01/08 09:30:58;;;;;;;14.00;6.90;;;-0.10;99.90;;;;;;5052914;28;20128;-52
2022/01/08 09:33:25;;;;;;;13.95;7.63;;;0.10;99.90;;;;;;5050808;28;20178;-55
2022/01/08 09:35:52;;;;;;;14.15;5.72;;;0.30;99.90;;;;;;5049349;28;20251;-53
2022/01/08 09:38:20;;;;;;;10.68;5.47;;;0.30;99.90;;;;;;5049715;28;20055;-52
2022/01/08 09:40:50;;;;;;;15.77;7.65;;;0.40;99.90;;;;;;5050392;28;20049;-52
2022/01/08 09:43:19;;;;;;;10.98;6.70;;;0.60;99.90;;;;;;5049405;28;20049;-56
2022/01/08 09:45:46;;;;;;;15.85;7.85;;;0.70;99.90;;;;;;5050154;28;20045;-55
2022/01/08 09:48:13;;;;;;;14.57;7.03;;;0.60;99.90;;;;;;5052022;28;20041;-54
2022/01/08 09:50:43;;;;;;;13.10;6.55;;;0.70;99.90;;;;;;5054250;28;20045;-51
2022/01/08 09:53:11;;;;;;;12.65;5.80;;;1.00;99.90;;;;;;5054256;28;20124;-52
2022/01/08 09:55:38;;;;;;;;;;;1.20;99.90;;;;;;5054031;28;20041;-56
2022/01/08 09:58:05;;;;;;;14.07;6.20;;;1.40;99.90;;;;;;5054461;28;19982;-54
2022/01/08 10:00:35;;;;;;;11.25;5.63;;;1.40;99.90;;;;;;5054126;28;20093;-55
2022/01/08 10:03:17;;;;;;;12.68;6.30;;;1.40;99.90;;;;;;5054123;28;20090;-54
2022/01/08 10:05:55;;;;;;;16.70;5.72;;;1.40;99.90;;;;;;5053471;28;20055;-53
2022/01/08 10:08:42;;;;;;;7.63;4.55;;;1.20;99.90;;;;;;5053924;28;20044;-54
2022/01/08 10:11:10;;;;;;;9.32;4.80;;;1.00;99.90;;;;;;5053881;28;20124;-52
2022/01/08 10:13:40;;;;;;;8.32;4.63;;;0.80;99.90;;;;;;5053675;28;20045;-52
2022/01/08 10:19:23;;;;;;;8.13;4.97;;;0.50;99.90;;;;;;5053636;28;20642;-53
2022/01/08 10:21:54;;;;;;;13.85;5.47;;;0.20;99.90;;;;;;5053793;28;20076;-52
2022/01/08 10:24:26;;;;;;;13.02;6.45;;;0.10;99.90;;;;;;5053906;28;20440;-56
2022/01/08 10:30:54;;;;;;;11.77;5.88;;;0.00;99.90;;;;;;5113897;28;20066;-51
2022/01/08 10:33:21;;;;;;;13.02;6.55;;;0.00;99.90;;;;;;5112243;28;20052;-49
2022/01/08 10:35:52;;;;;;;11.00;4.93;;;0.00;99.90;;;;;;5107613;28;20131;-51
2022/01/08 10:38:19;;;;;;;11.02;6.15;;;-0.20;99.90;;;;;;5073483;28;20094;-49
2022/01/08 10:40:46;;;;;;;14.43;6.38;;;-0.40;99.90;;;;;;5073543;28;20059;-48
2022/01/08 10:43:24;;;;;;;14.38;7.57;;;-0.30;99.90;;;;;;5073470;28;20037;-48
2022/01/08 10:45:54;;;;;;;12.63;6.93;;;-0.20;99.90;;;;;;5073092;28;20378;-52
2022/01/08 10:48:30;;;;;;;12.75;7.00;;;-0.20;99.90;;;;;;5073220;28;20174;-51
2022/01/08 10:51:21;;;;;;;14.63;5.75;;;-0.20;99.90;;;;;;5073162;28;20036;-50
2022/01/08 10:54:09;;;;;;;17.75;8.02;;;-0.10;99.90;;;;;;5072861;28;20106;-49
2022/01/08 10:56:55;;;;;;;15.57;6.55;;;0.00;99.90;;;;;;5072276;28;20094;-51
2022/01/08 10:59:25;;;;;;;12.85;6.60;;;-0.20;99.90;;;;;;5073040;28;20043;-49
2022/01/08 11:01:53;;;;;;;19.77;7.18;;;-0.20;99.90;;;;;;5072767;28;20185;-50
2022/01/08 11:04:32;;;;;;;19.63;7.28;;;0.00;99.90;;;;;;5072638;28;20039;-50
2022/01/08 11:07:02;;;;;;;17.30;7.53;;;0.20;99.90;;;;;;5073593;28;20040;-50
2022/01/08 11:09:30;;;;;;;8.80;5.03;;;0.20;99.90;;;;;;5087594;28;20032;-49
2022/01/08 11:12:00;;;;;;;9.27;4.97;;;0.20;99.90;;;;;;5092971;28;20058;-49
2022/01/08 11:17:26;;;;;;;9.27;5.03;;;0.20;99.90;;;;;;5092485;28;20093;-53
2022/01/08 11:19:55;;;;;;;7.07;4.45;;;0.30;99.90;;;;;;5092895;28;20463;-49
2022/01/08 11:22:28;;;;;;;7.80;4.20;;;0.40;99.90;;;;;;5092706;28;20502;-50
2022/01/08 11:24:57;;;;;;;9.25;5.20;;;0.60;99.90;;;;;;5092661;28;20040;-51
2022/01/08 11:27:29;;;;;;;10.75;6.10;;;0.80;99.90;;;;;;5092049;28;20040;-51
2022/01/08 11:30:03;;;;;;;10.63;5.55;;;0.90;99.90;;;;;;5092628;28;20484;-49
2022/01/08 11:32:31;;;;;;;20.85;6.90;;;0.90;99.90;;;;;;5092694;28;20044;-52
2022/01/08 11:35:00;;;;;;;11.07;5.35;;;1.10;99.90;;;;;;5092374;28;20083;-51
2022/01/08 11:37:29;;;;;;;12.45;5.72;;;1.20;99.90;;;;;;5091946;28;20051;-51
2022/01/08 11:40:00;;;;;;;11.43;5.47;;;1.30;99.90;;;;;;5092394;28;20100;-50
2022/01/08 11:42:27;;;;;;;15.57;5.45;;;1.40;99.90;;;;;;5092104;28;20112;-49
2022/01/08 11:44:55;;;;;;;10.57;5.43;;;1.40;99.90;;;;;;5092479;28;20046;-50
2022/01/08 11:47:23;;;;;;;20.42;6.30;;;1.40;99.90;;;;;;5091931;28;20044;-50
2022/01/08 11:49:52;;;;;;;16.02;7.10;;;1.40;99.90;;;;;;5092444;28;20036;-53
2022/01/08 11:52:21;;;;;;;14.95;6.18;;;1.40;99.90;;;;;;5092180;28;20048;-54
2022/01/08 11:54:49;;;;;;;12.18;5.70;;;1.40;99.90;;;;;;5092157;28;20047;-53
2022/01/08 11:57:28;;;;;;;13.02;6.45;;;1.40;99.90;;;;;;5091659;28;20101;-51
2022/01/08 11:59:57;;;;;;;14.82;6.20;;;1.30;99.90;;;;;;5092111;28;20052;-51
2022/01/08 12:02:42;;;;;;;15.95;6.47;;;1.30;99.90;;;;;;5092125;28;20040;-51
2022/01/08 12:05:13;;;;;;;16.95;6.75;;;1.20;99.90;;;;;;5091798;28;20040;-50
2022/01/08 12:07:47;;;;;;;12.25;6.13;;;1.20;99.90;;;;;;5092139;28;20051;-51
2022/01/08 12:10:17;;;;;;;11.18;6.10;;;1.30;99.90;;;;;;5091640;28;20044;-49
2022/01/08 12:12:52;;;;;;;10.88;5.90;;;1.40;99.90;;;;;;5091968;28;20097;-53
2022/01/08 12:15:41;;;;;;;11.35;5.43;;;1.50;99.90;;;;;;5091216;28;20047;-50
2022/01/08 12:18:13;;;;;;;14.45;6.20;;;1.30;99.90;;;;;;5088561;28;20033;-50
2022/01/08 12:20:47;;;;;;;16.63;6.30;;;1.20;99.90;;;;;;5082358;28;20044;-52
2022/01/08 12:23:23;;;;;;;12.35;6.47;;;1.20;99.90;;;;;;5082241;28;20045;-49
2022/01/08 12:25:50;;;;;;;21.55;8.82;;;1.20;99.90;;;;;;5081717;28;20060;-51
2022/01/08 12:28:56;;;;;;;14.82;6.78;;;1.20;99.90;;;;;;5082015;28;20043;-53
2022/01/08 12:31:36;;;;;;;15.73;6.45;;;1.10;99.90;;;;;;5082299;28;20050;-52
2022/01/08 12:34:29;;;;;;;14.43;6.03;;;1.20;99.90;;;;;;5082110;28;20067;-50
2022/01/08 12:36:57;;;;;;;21.67;9.32;;;1.20;99.90;;;;;;5081532;28;20059;-49
2022/01/08 12:39:42;;;;;;;83.75;23.83;;;1.20;99.90;;;;;;5081492;28;20060;-50
2022/01/08 12:42:24;;;;;;;20.58;10.18;;;1.40;99.90;;;;;;5082159;28;20119;-50
2022/01/08 12:45:03;;;;;;;19.15;8.68;;;1.10;99.90;;;;;;5081636;28;20032;-52
2022/01/08 12:47:48;;;;;;;21.80;9.65;;;1.30;99.90;;;;;;5082017;28;20400;-55
2022/01/08 12:50:23;;;;;;;23.85;12.48;;;1.60;99.90;;;;;;5090631;28;20497;-50
2022/01/08 12:53:05;;;;;;;33.38;11.90;;;1.70;99.90;;;;;;5091636;28;20044;-50
2022/01/08 12:55:54;;;;;;;25.40;11.50;;;1.90;99.90;;;;;;5080820;28;20040;-51
2022/01/08 12:58:31;;;;;;;19.77;10.10;;;2.10;99.90;;;;;;5082005;28;20044;-54
2022/01/08 13:00:59;;;;;;;26.17;11.27;;;2.30;99.90;;;;;;5081779;28;20044;-51
2022/01/08 13:03:32;;;;;;;15.70;7.25;;;2.40;99.90;;;;;;5081880;28;20720;-50
2022/01/08 13:06:02;;;;;;;14.43;7.18;;;2.40;99.90;;;;;;5080674;28;20032;-51
2022/01/08 13:08:31;;;;;;;20.42;10.70;;;2.10;99.90;;;;;;5080096;28;20135;-53
2022/01/08 13:11:01;;;;;;;19.13;10.18;;;2.10;99.90;;;;;;5080753;28;20086;-50
2022/01/08 13:13:47;;;;;;;14.73;7.88;;;2.40;99.90;;;;;;5081519;28;20036;-52
2022/01/08 13:16:30;;;;;;;13.15;7.47;;;2.70;99.90;;;;;;5079381;28;20044;-50
2022/01/08 13:19:03;;;;;;;12.20;6.97;;;2.90;99.90;;;;;;5079811;28;20095;-52
2022/01/08 13:21:42;;;;;;;10.48;6.30;;;3.20;99.90;;;;;;5079943;28;20032;-53